Time;durP1;ratioP1;P1;durP2;ratioP2;P2;SDS_P1;SDS_P2;PMS_P1;PMS_P2;Temp;Humidity;BMP_temperature;BMP_pressure;BME280_temperature;BME280_humidity;BME280_pressure;Samples;Min_cycle;Max_cycle;Signal;HPM_P1;HPM_P2
2024/02/08 00:01:57;;;;;;;2.30;1.60;;;;;;;2.71;85.63;97679.17;107232;1257;71454;-39
2024/02/08 00:04:25;;;;;;;3.40;2.00;;;;;;;2.71;85.76;97680.25;107225;1255;60389;-40
2024/02/08 00:06:53;;;;;;;3.30;1.90;;;;;;;2.59;85.93;97674.11;107268;1260;60535;-40
2024/02/08 00:09:20;;;;;;;3.00;2.00;;;;;;;2.62;86.16;97692.98;107289;1257;72619;-39
2024/02/08 00:11:52;;;;;;;3.70;2.20;;;;;;;2.67;86.10;97695.06;107301;1255;68444;-39
2024/02/08 00:14:28;;;;;;;3.70;2.20;;;;;;;2.71;85.95;97698.67;107248;1258;72669;-40
2024/02/08 00:16:59;;;;;;;2.60;1.70;;;;;;;2.68;86.13;97702.73;107322;1260;60437;-39
2024/02/08 00:19:56;;;;;;;2.40;1.80;;;;;;;2.61;86.33;97700.29;107327;1256;59215;-39
2024/02/08 00:22:53;;;;;;;3.10;2.00;;;;;;;2.64;86.35;97712.44;107383;1260;75166;-40
2024/02/08 00:25:31;;;;;;;3.20;2.10;;;;;;;2.63;86.38;97713.79;107296;1260;68673;-40
2024/02/08 00:28:11;;;;;;;2.90;2.20;;;;;;;2.58;86.55;97715.50;107480;1254;72684;-40
2024/02/08 00:30:49;;;;;;;6.40;2.40;;;;;;;2.57;86.89;97716.02;107243;1255;60881;-40
2024/02/08 00:33:27;;;;;;;4.10;2.10;;;;;;;2.64;86.74;97720.46;107228;1256;60350;-40
2024/02/08 00:36:05;;;;;;;2.60;2.10;;;;;;;2.66;86.65;97726.77;107335;1255;72892;-39
2024/02/08 00:38:43;;;;;;;3.00;1.90;;;;;;;2.61;86.75;97736.20;107294;1257;68694;-40
2024/02/08 00:41:17;;;;;;;3.10;2.10;;;;;;;2.58;86.87;97738.48;107414;1259;72651;-40
2024/02/08 00:43:44;;;;;;;2.70;2.00;;;;;;;2.62;86.85;97748.54;107378;1259;60849;-39
2024/02/08 00:46:12;;;;;;;4.10;2.20;;;;;;;2.63;86.88;97759.18;107326;1260;60360;-39
2024/02/08 00:48:43;;;;;;;2.60;1.90;;;;;;;2.60;87.04;97756.83;107336;1260;72653;-40
2024/02/08 00:51:10;;;;;;;3.90;1.60;;;;;;;2.57;87.12;97758.20;107346;1259;68884;-39
2024/02/08 00:53:38;;;;;;;2.30;1.70;;;;;;;2.60;86.95;97758.83;107350;1259;72463;-39
2024/02/08 00:56:09;;;;;;;2.10;1.80;;;;;;;2.61;86.75;97767.64;107356;1256;60232;-40
2024/02/08 00:58:38;;;;;;;4.50;2.40;;;;;;;2.57;87.05;97773.79;107363;1260;60008;-40
2024/02/08 01:01:09;;;;;;;2.40;1.70;;;;;;;2.53;87.26;97768.20;107297;1256;73772;-39
2024/02/08 01:03:37;;;;;;;2.00;1.30;;;;;;;2.56;86.92;97764.44;107303;1259;68696;-39
2024/02/08 01:06:04;;;;;;;2.30;1.60;;;;;;;2.59;86.57;97766.80;107307;1260;71194;-40
2024/02/08 01:08:33;;;;;;;2.10;1.70;;;;;;;2.56;86.76;97770.17;107259;1258;60629;-40
2024/02/08 01:11:00;;;;;;;2.40;1.60;;;;;;;2.50;86.71;97777.82;107248;1260;60594;-39
2024/02/08 01:13:31;;;;;;;1.40;1.30;;;;;;;2.51;86.60;97780.37;107258;1255;73880;-40
2024/02/08 01:15:59;;;;;;;2.10;1.20;;;;;;;2.51;86.36;97773.73;107261;1255;67413;-40
2024/02/08 01:18:26;;;;;;;1.70;1.40;;;;;;;2.51;86.40;97779.83;107310;1258;72439;-39
2024/02/08 01:20:54;;;;;;;2.80;1.30;;;;;;;2.46;86.32;97782.92;107262;1255;59790;-39
2024/02/08 01:23:22;;;;;;;1.70;1.20;;;;;;;2.43;86.18;97787.34;107265;1254;60062;-40
2024/02/08 01:25:50;;;;;;;2.50;1.30;;;;;;;2.45;85.79;97786.58;107316;1254;72575;-40
2024/02/08 01:28:18;;;;;;;1.70;1.20;;;;;;;2.43;85.58;97776.42;107348;1260;67117;-40
2024/02/08 01:30:45;;;;;;;1.90;1.30;;;;;;;2.37;85.69;97786.66;107329;1254;72514;-40
2024/02/08 01:33:13;;;;;;;1.80;1.00;;;;;;;2.32;85.93;97789.59;107299;1257;60504;-40
2024/02/08 01:35:41;;;;;;;1.80;1.00;;;;;;;2.35;85.70;97789.81;107357;1254;60274;-40
2024/02/08 01:38:09;;;;;;;1.50;1.10;;;;;;;2.40;85.33;97787.20;107361;1254;72972;-40
2024/02/08 01:40:36;;;;;;;1.30;1.00;;;;;;;2.39;85.03;97788.32;107340;1260;67388;-40
2024/02/08 01:43:06;;;;;;;1.30;0.90;;;;;;;2.33;84.61;97798.17;107244;1257;71412;-40
2024/02/08 01:45:34;;;;;;;2.20;1.00;;;;;;;2.27;84.74;97811.55;106512;1258;1005057;-40
2024/02/08 01:48:09;;;;;;;2.00;0.90;;;;;;;2.29;84.21;97806.86;107454;1260;60286;-40
2024/02/08 01:50:42;;;;;;;1.00;0.80;;;;;;;2.32;84.33;97810.06;107323;1254;73907;-40
2024/02/08 01:53:13;;;;;;;2.30;1.20;;;;;;;2.28;84.47;97820.06;107260;1254;68149;-39
2024/02/08 01:55:49;;;;;;;1.10;0.80;;;;;;;2.21;84.47;97816.27;107302;1260;72683;-40
2024/02/08 01:58:18;;;;;;;1.70;1.10;;;;;;;2.15;84.30;97809.70;107229;1259;60328;-40
2024/02/08 02:00:49;;;;;;;1.60;0.80;;;;;;;2.17;84.26;97816.63;107228;1254;60046;-41
2024/02/08 02:03:19;;;;;;;2.60;0.90;;;;;;;2.17;84.25;97820.16;107276;1254;73919;-41
2024/02/08 02:05:47;;;;;;;;;;;;;;;2.11;84.52;97816.94;107256;1254;69035;-41
2024/02/08 02:08:21;;;;;;;1.20;0.90;;;;;;;2.01;84.47;97820.69;107284;1260;72714;-40
2024/02/08 02:11:17;;;;;;;1.90;0.60;;;;;;;1.90;84.78;97823.67;107353;1258;60591;-41
2024/02/08 02:13:47;;;;;;;1.40;0.70;;;;;;;1.90;84.75;97817.31;107355;1257;60370;-40
2024/02/08 02:16:14;;;;;;;2.00;0.80;;;;;;;1.88;84.56;97813.77;107379;1254;72570;-40
2024/02/08 02:18:42;;;;;;;1.30;0.70;;;;;;;1.81;84.57;97811.22;107331;1256;68699;-41
2024/02/08 02:21:13;;;;;;;2.00;0.70;;;;;;;1.75;84.78;97815.02;107328;1260;71301;-41
2024/02/08 02:23:45;;;;;;;1.10;0.70;;;;;;;1.71;84.93;97818.95;107264;1260;61314;-40
2024/02/08 02:26:13;;;;;;;1.50;0.80;;;;;;;1.75;84.59;97817.45;105034;1254;1003118;-40
2024/02/08 02:28:41;;;;;;;2.60;1.00;;;;;;;1.77;84.44;97819.02;107380;1260;73842;-41
2024/02/08 02:31:13;;;;;;;0.90;0.80;;;;;;;1.73;84.70;97825.80;107186;1261;68483;-40
2024/02/08 02:33:41;;;;;;;1.70;0.80;;;;;;;1.69;84.71;97831.73;107245;1254;71406;-40
2024/02/08 02:36:12;;;;;;;1.70;0.80;;;;;;;1.65;84.88;97833.51;107311;1262;60504;-40
2024/02/08 02:38:41;;;;;;;;;;;;;;;1.65;84.55;97836.10;107322;1260;60338;-40
2024/02/08 02:41:08;;;;;;;2.70;0.70;;;;;;;1.67;84.30;97832.27;106731;1254;1003754;-40
2024/02/08 02:43:37;;;;;;;1.50;0.70;;;;;;;1.64;84.60;97836.45;107312;1254;68444;-40
2024/02/08 02:46:07;;;;;;;1.80;0.70;;;;;;;1.60;84.80;97842.91;107375;1255;72715;-40
2024/02/08 02:48:35;;;;;;;1.10;0.70;;;;;;;1.58;84.84;97840.39;107347;1255;60917;-40
2024/02/08 02:51:03;;;;;;;1.20;0.70;;;;;;;1.65;84.74;97846.92;107335;1254;60296;-41
2024/02/08 02:53:31;;;;;;;1.20;0.80;;;;;;;1.72;84.34;97847.01;107387;1260;73784;-41
2024/02/08 02:55:58;;;;;;;1.40;0.80;;;;;;;1.74;84.03;97854.15;107342;1260;67104;-41
2024/02/08 02:58:26;;;;;;;0.90;0.60;;;;;;;1.73;84.08;97857.99;107311;1254;72695;-41
2024/02/08 03:01:04;;;;;;;1.30;0.70;;;;;;;1.70;83.96;97866.23;107324;1254;60188;-41
2024/02/08 03:03:40;;;;;;;2.60;0.80;;;;;;;1.66;83.77;97866.95;107348;1257;60453;-40
2024/02/08 03:06:15;;;;;;;0.80;0.50;;;;;;;1.70;83.60;97879.23;107278;1260;73818;-40
2024/02/08 03:08:44;;;;;;;0.70;0.60;;;;;;;1.74;83.29;97881.70;107257;1260;68663;-40
2024/02/08 03:11:12;;;;;;;1.20;0.60;;;;;;;1.70;83.45;97885.40;107313;1254;71705;-40
2024/02/08 03:13:41;;;;;;;2.30;0.80;;;;;;;1.67;83.59;97887.80;107301;1257;60514;-40
2024/02/08 03:16:14;;;;;;;1.40;0.70;;;;;;;1.64;83.45;97898.41;107370;1254;60405;-40
2024/02/08 03:18:43;;;;;;;1.20;0.70;;;;;;;1.68;83.56;97898.77;107294;1260;72577;-41
2024/02/08 03:21:17;;;;;;;1.90;1.00;;;;;;;1.75;83.37;97907.89;107352;1255;67455;-41
2024/02/08 03:23:46;;;;;;;1.60;0.90;;;;;;;1.73;83.41;97908.85;107337;1254;72593;-41
2024/02/08 03:26:16;;;;;;;1.50;1.00;;;;;;;1.67;83.51;97913.00;107402;1254;60402;-41
2024/02/08 03:28:43;;;;;;;1.60;0.90;;;;;;;1.63;83.70;97910.23;107350;1254;60284;-38
2024/02/08 03:31:14;;;;;;;0.90;0.80;;;;;;;1.67;83.64;97914.61;107411;1255;71608;-40
2024/02/08 03:33:45;;;;;;;1.80;0.90;;;;;;;1.70;83.42;97921.41;107334;1260;68943;-41
2024/02/08 03:36:13;;;;;;;1.60;1.10;;;;;;;1.66;83.63;97931.68;107350;1260;71379;-41
2024/02/08 03:38:40;;;;;;;2.50;1.20;;;;;;;1.60;83.92;97937.05;107299;1257;60418;-40
2024/02/08 03:41:08;;;;;;;3.10;1.10;;;;;;;1.55;84.17;97942.11;107347;1254;60358;-40
2024/02/08 03:43:36;;;;;;;1.60;1.00;;;;;;;1.59;84.19;97947.26;107287;1254;72531;-41
2024/02/08 03:46:07;;;;;;;2.50;1.40;;;;;;;1.64;84.09;97944.52;107242;1259;68343;-40
2024/02/08 03:48:36;;;;;;;2.70;1.20;;;;;;;1.63;84.11;97944.27;107254;1259;70212;-40
2024/02/08 03:51:05;;;;;;;1.90;1.00;;;;;;;1.60;84.32;97950.02;107324;1256;60556;-40
2024/02/08 03:53:36;;;;;;;1.70;1.10;;;;;;;1.56;84.34;97950.27;107356;1254;60056;-40
2024/02/08 03:56:06;;;;;;;1.50;1.10;;;;;;;1.58;84.20;97951.97;107294;1260;73762;-40
2024/02/08 03:58:36;;;;;;;1.50;1.00;;;;;;;1.63;83.89;97955.02;107328;1260;68560;-40
2024/02/08 04:01:04;;;;;;;;;;;;;;;1.61;83.94;97954.66;107354;1254;73002;-40
2024/02/08 04:03:53;;;;;;;2.50;1.10;;;;;;;1.57;84.05;97955.22;107344;1260;59630;-40
2024/02/08 04:06:37;;;;;;;;;;;;;;;1.51;84.31;97960.11;107372;1254;60430;-40
2024/02/08 04:09:08;;;;;;;2.90;1.20;;;;;;;1.53;84.26;97962.56;107330;1254;73898;-41
2024/02/08 04:55:58;;;;;;;3.60;1.40;;;;;;;1.29;84.44;98011.66;107352;1255;71389;-40
2024/02/08 04:58:27;;;;;;;2.50;1.20;;;;;;;1.23;84.53;98012.77;107344;1254;60302;-40
2024/02/08 05:01:14;;;;;;;2.10;1.30;;;;;;;1.19;84.64;98014.91;107290;1254;60035;-40
2024/02/08 05:03:42;;;;;;;1.60;1.00;;;;;;;1.20;84.46;98016.51;107285;1254;73520;-40
2024/02/08 05:06:11;;;;;;;1.20;1.10;;;;;;;1.16;84.43;98010.02;107269;1254;69493;-40
2024/02/08 05:08:39;;;;;;;1.80;1.10;;;;;;;1.16;84.70;98020.77;107319;1255;72484;-40
2024/02/08 05:11:09;;;;;;;2.20;1.30;;;;;;;1.11;85.00;98027.32;107371;1257;60532;-40
2024/02/08 05:13:41;;;;;;;1.50;1.30;;;;;;;1.07;85.02;98028.54;107272;1254;60334;-40
2024/02/08 05:16:14;;;;;;;2.10;1.10;;;;;;;1.10;84.98;98033.09;107271;1254;74005;-40
2024/02/08 05:18:43;;;;;;;1.60;1.10;;;;;;;1.14;84.79;98037.27;107353;1254;68678;-40
2024/02/08 05:21:15;;;;;;;1.90;1.30;;;;;;;1.11;84.84;98039.77;107382;1257;71891;-40
2024/02/08 05:23:43;;;;;;;3.30;1.50;;;;;;;1.09;85.10;98043.65;107412;1256;60417;-41
2024/02/08 05:26:11;;;;;;;2.20;1.20;;;;;;;1.06;85.13;98043.69;107174;1254;60280;-40
2024/02/08 05:28:38;;;;;;;2.20;1.20;;;;;;;1.06;84.86;98049.55;107360;1254;73855;-40
2024/02/08 05:31:08;;;;;;;2.00;1.30;;;;;;;1.13;84.89;98049.49;107284;1255;66634;-40
2024/02/08 05:33:38;;;;;;;3.50;1.30;;;;;;;1.13;84.63;98055.96;107325;1260;72329;-40
2024/02/08 05:36:10;;;;;;;1.70;1.20;;;;;;;1.08;84.68;98059.09;107345;1255;60370;-40
2024/02/08 05:38:41;;;;;;;1.90;1.10;;;;;;;1.02;84.78;98065.14;107327;1254;60277;-40
2024/02/08 05:41:09;;;;;;;1.70;1.10;;;;;;;0.99;84.75;98071.88;107251;1254;72591;-40
2024/02/08 05:43:46;;;;;;;1.90;1.20;;;;;;;1.05;84.55;98070.04;107323;1254;68338;-40
2024/02/08 05:46:29;;;;;;;2.00;1.00;;;;;;;1.09;84.52;98075.36;107358;1254;71386;-40
2024/02/08 05:49:13;;;;;;;1.60;1.10;;;;;;;1.08;84.64;98081.59;107275;1254;60215;-40
2024/02/08 05:51:51;;;;;;;1.90;1.10;;;;;;;1.06;84.74;98088.63;107309;1254;60416;-40
2024/02/08 05:54:20;;;;;;;1.40;1.10;;;;;;;1.04;84.74;98091.55;107350;1254;73843;-40
2024/02/08 05:56:48;;;;;;;3.20;1.70;;;;;;;1.08;84.47;98093.56;107334;1260;67274;-40
2024/02/08 05:59:20;;;;;;;3.60;1.40;;;;;;;1.14;84.32;98096.67;107317;1260;71618;-40
2024/02/08 06:01:50;;;;;;;2.30;1.60;;;;;;;1.14;84.32;98104.42;107354;1257;59703;-40
2024/02/08 06:04:24;;;;;;;2.60;1.70;;;;;;;1.11;84.60;98113.64;107356;1259;60483;-40
2024/02/08 06:07:01;;;;;;;2.20;1.60;;;;;;;1.09;84.74;98116.85;107392;1254;73863;-40
2024/02/08 06:12:36;;;;;;;1.90;1.50;;;;;;;1.18;84.55;98117.77;107347;1258;70421;-39
2024/02/08 06:15:21;;;;;;;2.20;1.50;;;;;;;1.23;84.24;98119.86;107345;1257;60632;-40
2024/02/08 06:17:57;;;;;;;3.20;1.50;;;;;;;1.19;84.65;98112.86;107342;1254;60980;-41
2024/02/08 06:20:33;;;;;;;2.30;1.50;;;;;;;1.25;84.68;98120.02;107293;1260;73746;-40
2024/02/08 06:23:23;;;;;;;2.30;1.20;;;;;;;1.26;84.52;98129.35;107180;1254;68453;-40
2024/02/08 06:28:44;;;;;;;1.80;1.20;;;;;;;1.44;84.02;98139.36;107274;1254;60366;-40
2024/02/08 06:31:15;;;;;;;2.50;1.20;;;;;;;1.45;84.10;98138.33;107290;1254;61950;-41
2024/02/08 06:34:09;;;;;;;3.30;1.50;;;;;;;1.43;83.96;98143.58;107311;1254;73940;-41
2024/02/08 06:36:42;;;;;;;2.80;1.30;;;;;;;1.39;83.80;98145.06;107333;1254;67408;-40
2024/02/08 06:39:29;;;;;;;1.50;1.10;;;;;;;1.46;83.49;98147.45;107331;1254;74836;-40
2024/02/08 06:42:23;;;;;;;4.50;1.50;;;;;;;1.53;83.31;98153.26;107362;1260;60542;-39
2024/02/08 06:45:24;;;;;;;2.30;1.30;;;;;;;1.53;83.38;98159.08;107360;1254;60360;-38
2024/02/08 07:41:53;;;;;;;1.40;0.80;;;;;;;2.11;79.18;98233.14;106762;1264;60229;-39
2024/02/08 07:44:30;;;;;;;1.00;0.90;;;;;;;1.94;79.47;98222.38;106762;1263;60198;-39
2024/02/08 07:47:05;;;;;;;2.80;1.30;;;;;;;1.92;80.05;98232.86;106782;1263;73092;-39
2024/02/08 07:49:42;;;;;;;2.20;1.40;;;;;;;1.91;80.36;98240.08;106850;1264;67584;-39
2024/02/08 07:52:19;;;;;;;;;;;;;;;1.89;79.36;98242.30;106856;1264;71168;-39
2024/02/08 07:55:14;;;;;;;2.50;1.20;;;;;;;1.95;79.10;98245.38;106764;1264;59577;-39
2024/02/08 07:57:48;;;;;;;1.80;1.10;;;;;;;2.01;79.05;98252.55;106752;1263;60056;-39
2024/02/08 08:03:23;;;;;;;1.40;1.10;;;;;;;2.05;78.29;98259.49;106433;1263;69815;-39
2024/02/08 08:05:56;;;;;;;1.60;1.30;;;;;;;2.04;78.20;98260.45;106829;1264;73601;-39
2024/02/08 08:08:24;;;;;;;1.90;1.60;;;;;;;2.05;77.99;98262.39;106806;1269;61086;-39
2024/02/08 08:10:56;;;;;;;;;;;;;;;2.15;77.86;98268.86;106855;1269;59174;-39
2024/02/08 08:19:07;;;;;;;1.60;1.30;;;;;;;2.30;75.72;98280.97;106758;1263;72771;-39
2024/02/08 08:24:27;;;;;;;2.70;1.70;;;;;;;2.35;75.16;98288.48;106663;1264;59649;-39
2024/02/08 08:27:06;;;;;;;2.70;1.80;;;;;;;2.37;74.60;98291.20;106724;1264;75299;-39
2024/02/08 08:29:45;;;;;;;6.30;3.20;;;;;;;2.37;73.79;98294.42;106632;1264;69149;-39
2024/02/08 08:40:49;;;;;;;2.50;1.80;;;;;;;2.61;72.37;98301.58;106748;1264;74078;-39
2024/02/08 08:43:22;;;;;;;3.00;1.80;;;;;;;2.70;72.11;98308.80;106831;1269;68840;-39
2024/02/08 08:45:51;;;;;;;2.00;1.50;;;;;;;2.79;72.12;98307.29;106763;1267;70467;-40
2024/02/08 08:48:19;;;;;;;2.10;1.50;;;;;;;2.80;69.45;98312.19;106860;1264;59696;-40
2024/02/08 08:50:57;;;;;;;1.60;1.40;;;;;;;2.74;69.94;98320.36;106847;1264;59550;-40
2024/02/08 08:53:28;;;;;;;2.40;1.40;;;;;;;2.75;69.61;98326.58;106779;1268;71788;-40
2024/02/08 08:55:57;;;;;;;3.20;1.40;;;;;;;2.74;67.67;98326.06;106819;1264;67305;-41
2024/02/08 08:58:28;;;;;;;2.40;1.50;;;;;;;2.68;68.44;98322.36;106750;1267;72832;-41
2024/02/08 09:01:11;;;;;;;2.60;1.50;;;;;;;2.62;68.68;98320.63;106652;1264;59587;-41
2024/02/08 09:03:40;;;;;;;2.40;1.60;;;;;;;2.55;68.85;98323.75;105173;1269;1003656;-39
2024/02/08 09:06:14;;;;;;;2.50;1.70;;;;;;;2.49;68.99;98322.94;106762;1264;71832;-39
2024/02/08 09:08:54;;;;;;;3.30;1.50;;;;;;;2.47;69.42;98329.91;106782;1263;67636;-39
2024/02/08 09:11:26;;;;;;;2.20;1.70;;;;;;;2.49;69.81;98329.13;106742;1267;71235;-39
2024/02/08 09:13:55;;;;;;;2.30;1.70;;;;;;;2.50;69.40;98331.34;106702;1265;59756;-40
2024/02/08 09:21:33;;;;;;;2.50;1.80;;;;;;;2.46;69.22;98335.23;106777;1267;68853;-39
2024/02/08 09:24:04;;;;;;;2.70;2.30;;;;;;;2.44;69.08;98336.17;106820;1267;72779;-39
2024/02/08 09:29:25;;;;;;;2.70;2.00;;;;;;;2.47;69.20;98344.05;106817;1269;60327;-39
2024/02/08 09:32:00;;;;;;;2.40;1.80;;;;;;;2.49;68.77;98346.57;106787;1267;72328;-40
2024/02/08 09:34:37;;;;;;;2.90;2.10;;;;;;;2.52;68.74;98345.21;106781;1264;69204;-39
2024/02/08 09:37:08;;;;;;;3.60;1.90;;;;;;;2.53;68.64;98345.55;106788;1267;71798;-39
2024/02/08 09:42:26;;;;;;;2.20;1.60;;;;;;;2.48;67.97;98347.99;106715;1263;59715;-39
2024/02/08 09:48:11;;;;;;;2.70;1.70;;;;;;;2.25;68.49;98355.96;106387;1275;68715;-40
2024/02/08 09:50:53;;;;;;;2.90;2.10;;;;;;;2.15;69.08;98354.27;106725;1264;72805;-39
2024/02/08 09:53:27;;;;;;;3.10;2.10;;;;;;;2.10;69.86;98357.83;106761;1266;59647;-39
2024/02/08 09:56:02;;;;;;;2.40;2.00;;;;;;;2.06;70.02;98362.41;106730;1264;59367;-40
2024/02/08 09:58:39;;;;;;;4.40;2.10;;;;;;;2.06;70.27;98361.70;106796;1264;73168;-39
2024/02/08 10:01:30;;;;;;;3.30;1.90;;;;;;;2.13;70.40;98365.32;106083;1261;1002857;-39
2024/02/08 10:04:05;;;;;;;3.40;2.10;;;;;;;2.11;69.38;98366.78;106834;1260;71793;-39
2024/02/08 10:06:56;;;;;;;3.40;2.60;;;;;;;2.03;69.97;98368.63;106883;1261;59679;-40
2024/02/08 10:09:46;;;;;;;3.10;2.20;;;;;;;1.98;70.24;98374.35;106844;1262;60122;-40
2024/02/08 10:12:29;;;;;;;2.70;2.10;;;;;;;1.90;70.33;98372.42;106866;1263;73119;-39
2024/02/08 10:14:59;;;;;;;3.60;2.30;;;;;;;1.79;70.38;98375.02;106768;1260;66582;-39
2024/02/08 10:17:28;;;;;;;3.40;2.50;;;;;;;1.74;70.75;98374.83;106762;1263;71924;-41
2024/02/08 10:22:54;;;;;;;3.30;2.30;;;;;;;1.89;71.31;98377.71;106779;1261;60128;-40
2024/02/08 10:28:21;;;;;;;6.30;3.60;;;;;;;1.94;71.57;98379.05;106867;1260;68400;-39
2024/02/08 10:30:57;;;;;;;3.80;2.80;;;;;;;1.98;71.87;98378.24;106867;1263;71511;-39
2024/02/08 10:33:35;;;;;;;4.40;2.80;;;;;;;2.07;71.40;98383.16;106902;1266;59528;-40
2024/02/08 10:36:15;;;;;;;5.40;2.90;;;;;;;2.12;71.04;98381.33;106844;1260;60080;-40
2024/02/08 10:38:55;;;;;;;3.70;2.90;;;;;;;2.20;71.11;98379.41;106859;1262;73197;-39
2024/02/08 10:41:44;;;;;;;4.90;2.90;;;;;;;2.40;71.15;98380.34;106858;1262;68656;-40
2024/02/08 10:44:18;;;;;;;4.00;2.70;;;;;;;2.63;69.98;98378.30;106841;1264;70756;-40
2024/02/08 10:46:46;;;;;;;4.40;2.90;;;;;;;2.79;70.04;98384.59;106868;1263;59660;-40
2024/02/08 10:49:14;;;;;;;3.60;2.70;;;;;;;2.92;68.23;98390.08;106855;1260;60127;-40
2024/02/08 10:51:44;;;;;;;4.50;3.10;;;;;;;2.96;67.62;98394.39;106844;1263;73164;-40
2024/02/08 10:54:15;;;;;;;4.00;3.10;;;;;;;2.93;67.35;98393.95;106945;1264;68948;-40
2024/02/08 10:56:45;;;;;;;5.60;3.10;;;;;;;2.91;67.26;98394.61;107077;1257;72823;-40
2024/02/08 10:59:14;;;;;;;4.70;3.20;;;;;;;2.91;67.75;98400.30;107153;1257;59758;-40
2024/02/08 11:04:28;;;;;;;5.70;3.50;;;;;;;2.84;67.22;98403.50;107053;1257;72405;-40
2024/02/08 11:07:14;;;;;;;5.00;3.50;;;;;;;2.87;66.72;98406.65;107076;1257;67696;-40
2024/02/08 11:09:46;;;;;;;3.80;3.30;;;;;;;2.82;65.82;98402.73;107079;1257;70960;-40
2024/02/08 11:12:18;;;;;;;5.40;3.20;;;;;;;2.72;65.15;98400.79;107178;1263;59317;-40
2024/02/08 11:14:53;;;;;;;5.30;3.20;;;;;;;2.64;65.23;98405.12;107236;1257;60139;-40
2024/02/08 11:17:23;;;;;;;4.20;2.80;;;;;;;2.61;65.96;98406.55;107283;1257;71813;-40
2024/02/08 11:19:59;;;;;;;3.50;2.70;;;;;;;2.59;65.84;98412.35;106492;1257;1003448;-39
2024/02/08 11:22:40;;;;;;;4.00;2.60;;;;;;;2.57;65.58;98407.61;107227;1257;72827;-40
2024/02/08 11:25:23;;;;;;;3.40;2.50;;;;;;;2.52;65.05;98408.64;107207;1257;59132;-40
2024/02/08 11:27:52;;;;;;;3.10;2.30;;;;;;;2.44;65.01;98401.50;107193;1258;59871;-40
2024/02/08 11:30:32;;;;;;;2.90;2.10;;;;;;;2.43;64.85;98400.33;107257;1257;73158;-40
2024/02/08 11:33:02;;;;;;;3.60;2.30;;;;;;;2.50;65.84;98398.58;107105;1257;68549;-40
2024/02/08 11:35:45;;;;;;;3.50;2.30;;;;;;;2.58;66.23;98395.36;107232;1257;71962;-40
2024/02/08 11:38:16;;;;;;;4.60;2.40;;;;;;;2.68;66.00;98390.64;107119;1257;60313;-40
2024/02/08 11:40:45;;;;;;;3.00;2.30;;;;;;;2.75;65.38;98393.08;107211;1257;62069;-40
2024/02/08 11:43:19;;;;;;;3.30;2.70;;;;;;;2.81;64.69;98390.84;107248;1257;73988;-40
2024/02/08 11:45:52;;;;;;;3.40;2.20;;;;;;;2.83;63.22;98395.04;107125;1257;68584;-41
2024/02/08 11:48:31;;;;;;;6.90;2.90;;;;;;;2.80;63.41;98401.14;107105;1257;71476;-40
2024/02/08 11:51:09;;;;;;;4.40;2.40;;;;;;;2.78;63.24;98398.24;107071;1257;60476;-40
2024/02/08 11:53:39;;;;;;;2.80;2.10;;;;;;;2.73;63.54;98393.18;107182;1257;60440;-41
2024/02/08 11:56:10;;;;;;;3.50;2.40;;;;;;;2.71;63.46;98391.88;107150;1257;72635;-40
2024/02/08 11:58:40;;;;;;;3.00;2.20;;;;;;;2.76;63.80;98392.59;107476;1254;67605;-40
2024/02/08 12:01:09;;;;;;;4.40;2.80;;;;;;;2.84;63.25;98393.00;107451;1254;73188;-40
2024/02/08 12:03:41;;;;;;;4.20;2.70;;;;;;;2.88;62.99;98397.37;107513;1259;60247;-40
2024/02/08 12:06:21;;;;;;;3.70;2.70;;;;;;;2.96;62.88;98398.23;107503;1254;60286;-41
2024/02/08 12:08:55;;;;;;;3.70;2.50;;;;;;;2.99;62.94;98394.83;107440;1254;73456;-40
2024/02/08 12:11:24;;;;;;;3.90;2.90;;;;;;;3.01;63.45;98390.14;107445;1254;68863;-40
2024/02/08 12:13:55;;;;;;;4.90;3.10;;;;;;;3.04;63.05;98388.34;107358;1254;71449;-40
2024/02/08 12:16:30;;;;;;;4.90;3.00;;;;;;;3.07;63.46;98390.02;107432;1254;60411;-40
2024/02/08 12:19:05;;;;;;;3.90;2.70;;;;;;;3.09;62.80;98393.39;107386;1254;61142;-40
2024/02/08 12:21:35;;;;;;;6.90;3.10;;;;;;;3.08;63.01;98391.83;107421;1254;72098;-41
2024/02/08 12:24:03;;;;;;;3.80;2.90;;;;;;;3.08;63.04;98385.30;107409;1254;68951;-40
2024/02/08 12:26:32;;;;;;;4.30;2.60;;;;;;;3.09;62.90;98388.55;107336;1259;72794;-41
2024/02/08 12:29:02;;;;;;;3.10;2.50;;;;;;;3.09;63.15;98385.17;107376;1253;59594;-40
2024/02/08 12:31:31;;;;;;;3.60;2.30;;;;;;;3.12;63.34;98382.59;107493;1254;60087;-41
2024/02/08 12:34:03;;;;;;;;;;;;;;;3.20;63.11;98385.99;107277;1254;73957;-40
2024/02/08 12:36:33;;;;;;;4.20;2.60;;;;;;;3.28;62.91;98386.41;107429;1253;67705;-40
2024/02/08 12:39:01;;;;;;;2.80;2.40;;;;;;;3.29;62.67;98391.41;107437;1254;72808;-41
2024/02/08 12:41:29;;;;;;;4.10;2.60;;;;;;;3.31;62.62;98392.08;107290;1254;60371;-41
2024/02/08 12:43:57;;;;;;;2.90;2.30;;;;;;;3.37;62.75;98387.08;107436;1254;60508;-40
2024/02/08 12:46:27;;;;;;;3.60;2.20;;;;;;;3.46;62.80;98387.91;107483;1254;75335;-41
2024/02/08 12:48:55;;;;;;;3.90;2.60;;;;;;;3.61;61.56;98387.29;107471;1254;67867;-41
2024/02/08 12:51:23;;;;;;;4.10;2.40;;;;;;;3.66;60.31;98384.82;107436;1259;71787;-40
2024/02/08 12:53:57;;;;;;;3.60;2.60;;;;;;;3.62;60.65;98382.36;107096;1254;60611;-40
2024/02/08 12:56:25;;;;;;;3.30;2.40;;;;;;;3.66;60.83;98386.52;107373;1254;60141;-40
2024/02/08 12:59:03;;;;;;;3.40;2.50;;;;;;;3.68;60.17;98389.57;107355;1254;72455;-41
2024/02/08 13:01:44;;;;;;;2.80;2.20;;;;;;;3.62;60.80;98394.52;107348;1254;68637;-41
2024/02/08 13:04:17;;;;;;;3.30;2.30;;;;;;;3.52;59.74;98392.14;107356;1256;72773;-40
2024/02/08 13:06:47;;;;;;;2.80;2.40;;;;;;;3.39;59.99;98391.97;107339;1254;59611;-40
2024/02/08 13:09:29;;;;;;;3.20;2.50;;;;;;;3.28;60.11;98390.94;107477;1254;60312;-40
2024/02/08 13:12:17;;;;;;;3.70;2.70;;;;;;;3.15;60.83;98391.57;107437;1254;73804;-40
2024/02/08 13:14:48;;;;;;;4.20;2.60;;;;;;;3.01;61.08;98397.88;107453;1256;67597;-40
2024/02/08 13:17:21;;;;;;;4.70;3.10;;;;;;;2.96;61.96;98399.23;107471;1254;71014;-40
2024/02/08 13:19:55;;;;;;;3.00;2.50;;;;;;;2.92;62.28;98393.83;107555;1254;60524;-41
2024/02/08 13:22:31;;;;;;;4.60;2.70;;;;;;;2.88;62.22;98396.14;107480;1254;60322;-40
2024/02/08 13:24:59;;;;;;;3.60;2.70;;;;;;;2.80;62.42;98396.27;107462;1258;72678;-41
2024/02/08 13:27:30;;;;;;;3.20;2.60;;;;;;;2.74;62.73;98402.77;107462;1253;68669;-41
2024/02/08 13:30:00;;;;;;;3.20;2.50;;;;;;;2.74;63.23;98403.35;107323;1256;70542;-40
2024/02/08 13:32:31;;;;;;;4.00;2.30;;;;;;;2.78;63.50;98407.11;107350;1254;61524;-40
2024/02/08 13:35:00;;;;;;;2.20;2.00;;;;;;;2.83;63.87;98407.13;107356;1254;60486;-40
2024/02/08 13:37:29;;;;;;;;;;;;;;;2.84;63.70;98405.62;107519;1254;73982;-41
2024/02/08 13:39:59;;;;;;;3.10;2.50;;;;;;;2.83;63.72;98401.87;107443;1254;69056;-39
2024/02/08 13:42:32;;;;;;;3.30;2.50;;;;;;;2.83;63.78;98401.52;107375;1258;71802;-40
2024/02/08 13:45:24;;;;;;;3.90;2.60;;;;;;;2.79;63.65;98397.56;107315;1254;59575;-40
2024/02/08 13:47:55;;;;;;;3.50;2.50;;;;;;;2.71;63.66;98396.92;107372;1256;60332;-39
2024/02/08 13:50:28;;;;;;;2.80;2.30;;;;;;;2.62;63.22;98394.32;107395;1256;73979;-39
2024/02/08 13:53:01;;;;;;;3.10;2.30;;;;;;;2.52;63.40;98391.52;107354;1254;67274;-39
2024/02/08 13:55:31;;;;;;;3.00;2.10;;;;;;;2.43;63.45;98393.84;107475;1254;72963;-40
2024/02/08 13:58:18;;;;;;;3.70;2.20;;;;;;;2.36;63.57;98395.88;107469;1254;60414;-39
2024/02/08 14:00:47;;;;;;;2.50;1.80;;;;;;;2.30;62.98;98399.47;107463;1254;60328;-40
2024/02/08 14:03:16;;;;;;;2.70;1.90;;;;;;;2.18;62.49;98403.33;107556;1254;72688;-40
2024/02/08 14:05:51;;;;;;;2.80;1.90;;;;;;;2.08;62.59;98406.88;107555;1255;67671;-39
2024/02/08 14:08:23;;;;;;;2.80;2.00;;;;;;;2.01;62.80;98415.30;107458;1254;72743;-39
2024/02/08 14:10:53;;;;;;;3.90;2.20;;;;;;;1.94;63.06;98413.20;107495;1255;60345;-39
2024/02/08 14:13:34;;;;;;;2.90;2.10;;;;;;;1.88;62.95;98402.97;106680;1254;1003517;-40
2024/02/08 14:16:13;;;;;;;3.00;2.00;;;;;;;1.79;63.04;98407.59;107400;1258;72710;-40
2024/02/08 14:18:52;;;;;;;2.40;2.00;;;;;;;1.68;63.35;98409.25;107328;1254;68853;-40
2024/02/08 14:21:24;;;;;;;4.30;2.20;;;;;;;1.66;63.74;98410.46;107402;1257;72833;-40
2024/02/08 14:23:59;;;;;;;2.30;1.90;;;;;;;1.69;64.02;98410.60;107463;1253;60415;-39
2024/02/08 14:26:36;;;;;;;4.00;2.10;;;;;;;1.66;63.81;98416.23;107394;1254;60157;-40
2024/02/08 14:29:07;;;;;;;3.10;2.30;;;;;;;1.61;64.11;98415.77;105982;1254;1003569;-39